createdAt,value
2023-01-10T00:00:01.274Z,4.35
2023-01-10T00:05:00.433Z,4.56
2023-01-10T00:10:00.559Z,4.46
2023-01-10T00:15:00.532Z,4.35
2023-01-10T00:20:00.348Z,4.69
2023-01-10T00:25:00.326Z,5.22
2023-01-10T00:30:00.725Z,5.11
2023-01-10T00:35:00.326Z,4.40
2023-01-10T00:40:00.413Z,4.63
2023-01-10T00:45:00.840Z,5.28
2023-01-10T00:50:00.331Z,4.27
2023-01-10T00:55:00.519Z,4.31
2023-01-10T01:00:00.958Z,4.45
2023-01-10T01:05:00.525Z,4.06
2023-01-10T01:10:00.335Z,4.54
2023-01-10T01:15:00.523Z,4.92
2023-01-10T01:20:00.362Z,4.89
2023-01-10T01:25:00.381Z,4.76
2023-01-10T01:30:00.441Z,4.72
2023-01-10T01:35:00.364Z,4.11
2023-01-10T01:40:00.322Z,4.49
2023-01-10T01:45:01.371Z,5.26
2023-01-10T01:50:00.304Z,4.16
2023-01-10T01:55:00.443Z,4.21
2023-01-10T02:00:01.002Z,3.81
2023-01-10T02:05:00.294Z,3.87
2023-01-10T02:10:00.467Z,3.74
2023-01-10T02:15:00.768Z,4.35
2023-01-10T02:20:00.330Z,3.98
2023-01-10T02:25:00.349Z,3.57
2023-01-10T02:30:01.109Z,2.75
2023-01-10T02:35:00.318Z,3.30
2023-01-10T02:40:00.425Z,3.32
2023-01-10T02:45:00.523Z,3.17
2023-01-10T02:50:00.599Z,3.38
2023-01-10T02:55:00.319Z,2.88
2023-01-10T03:00:00.708Z,3.04
2023-01-10T03:05:00.516Z,2.41
2023-01-10T03:10:00.470Z,2.75
2023-01-10T03:15:01.048Z,2.80
2023-01-10T03:20:00.337Z,3.40
2023-01-10T03:25:00.564Z,3.12
2023-01-10T03:30:00.457Z,3.01
2023-01-10T03:35:00.329Z,3.04
2023-01-10T03:40:00.317Z,2.93
2023-01-10T03:45:00.616Z,2.72
2023-01-10T03:50:00.331Z,3.33
2023-01-10T03:55:00.624Z,3.25
2023-01-10T04:00:00.628Z,3.03
2023-01-10T04:05:00.601Z,3.28
2023-01-10T04:10:00.326Z,3.00
2023-01-10T04:15:00.782Z,4.05
2023-01-10T04:20:00.363Z,3.49
2023-01-10T04:25:00.383Z,3.23
2023-01-10T04:30:00.556Z,3.01
2023-01-10T04:35:00.370Z,3.40
2023-01-10T04:40:01.387Z,3.75
2023-01-10T04:45:00.764Z,4.42
2023-01-10T04:50:00.309Z,4.24
2023-01-10T04:55:00.482Z,3.95
2023-01-10T05:00:00.924Z,4.41
2023-01-10T05:05:00.726Z,4.09
2023-01-10T05:10:00.312Z,4.48
2023-01-10T05:15:01.434Z,4.44
2023-01-10T05:20:00.326Z,4.04
2023-01-10T05:25:00.439Z,4.53
2023-01-10T05:30:00.400Z,4.35
2023-01-10T05:35:00.342Z,4.95
2023-01-10T05:40:00.339Z,4.70
2023-01-10T05:45:00.691Z,5.40
2023-01-10T05:50:00.323Z,4.35
2023-01-10T05:55:00.638Z,5.31
2023-01-10T06:00:04.276Z,4.81
2023-01-10T06:05:00.323Z,5.17
2023-01-10T06:10:00.656Z,5.38
2023-01-10T06:15:00.489Z,4.91
2023-01-10T06:20:00.365Z,4.96
2023-01-10T06:25:02.372Z,5.65
2023-01-10T06:30:00.551Z,4.57
2023-01-10T06:35:00.330Z,5.23
2023-01-10T06:40:00.389Z,5.71
2023-01-10T06:45:00.778Z,5.17
2023-01-10T06:50:00.327Z,4.99
2023-01-10T06:55:00.482Z,4.55
2023-01-10T07:00:00.945Z,4.63
2023-01-10T07:05:00.321Z,5.30
2023-01-10T07:10:00.356Z,4.95
2023-01-10T07:15:00.632Z,5.55
2023-01-10T07:20:00.286Z,5.82
2023-01-10T07:25:00.473Z,6.34
2023-01-10T07:30:00.385Z,5.95
2023-01-10T07:35:00.364Z,5.35
2023-01-10T07:40:00.361Z,5.61
2023-01-10T07:45:00.622Z,5.87
2023-01-10T07:50:00.306Z,5.51
2023-01-10T07:55:01.317Z,6.08
2023-01-10T08:00:00.932Z,5.81
2023-01-10T08:05:00.358Z,5.35
2023-01-10T08:10:00.319Z,4.88
2023-01-10T08:15:00.566Z,5.81
2023-01-10T08:20:00.353Z,5.94
2023-01-10T08:25:00.443Z,5.87
2023-01-10T08:30:00.963Z,8.49
2023-01-10T08:35:00.508Z,6.06
2023-01-10T08:40:00.324Z,5.52
2023-01-10T08:45:01.022Z,5.68
2023-01-10T08:50:00.317Z,5.97
2023-01-10T08:55:00.541Z,4.72
2023-01-10T09:00:00.652Z,3.20
2023-01-10T09:05:00.405Z,4.14
2023-01-10T09:10:00.297Z,3.21
2023-01-10T09:15:00.912Z,3.92
2023-01-10T09:20:00.318Z,4.98
2023-01-10T09:25:00.375Z,3.18
2023-01-10T09:30:01.160Z,3.71
2023-01-10T09:35:01.358Z,4.52
2023-01-10T09:40:00.329Z,4.41
2023-01-10T09:45:00.605Z,3.49
2023-01-10T09:50:01.419Z,4.13
2023-01-10T09:55:00.580Z,4.67
2023-01-10T10:00:00.624Z,5.10
2023-01-10T10:05:00.552Z,5.30
2023-01-10T10:10:00.321Z,4.51
2023-01-10T10:15:00.909Z,4.60
2023-01-10T10:20:00.409Z,4.52
2023-01-10T10:25:00.374Z,3.52
2023-01-10T10:30:00.451Z,3.43
2023-01-10T10:35:00.388Z,4.14
2023-01-10T10:40:00.300Z,4.12
2023-01-10T10:45:00.588Z,3.60
2023-01-10T10:50:00.370Z,2.70
2023-01-10T10:55:00.818Z,2.39
2023-01-10T11:00:00.686Z,2.75
2023-01-10T11:05:00.677Z,2.24
2023-01-10T11:10:00.403Z,2.47
2023-01-10T11:15:00.612Z,2.23
2023-01-10T11:20:00.426Z,3.07
2023-01-10T11:25:00.547Z,3.18
2023-01-10T11:30:00.540Z,3.16
2023-01-10T11:35:00.421Z,2.91
2023-01-10T11:40:00.370Z,3.01
2023-01-10T11:45:01.261Z,2.55
2023-01-10T11:50:00.392Z,2.74
2023-01-10T11:55:00.539Z,2.63
2023-01-10T12:00:00.624Z,2.64
2023-01-10T12:05:00.377Z,2.39
2023-01-10T12:10:00.590Z,2.71
2023-01-10T12:15:00.554Z,2.39
2023-01-10T12:20:00.537Z,3.09
2023-01-10T12:25:00.392Z,3.76
2023-01-10T12:30:00.683Z,2.98
2023-01-10T12:35:00.395Z,3.38
2023-01-10T12:40:00.423Z,3.96
2023-01-10T12:45:00.872Z,3.18
2023-01-10T12:50:00.403Z,2.96
2023-01-10T12:55:00.532Z,2.25
2023-01-10T13:00:00.689Z,2.47
2023-01-10T13:05:00.433Z,2.74
2023-01-10T13:10:00.437Z,2.88
2023-01-10T13:15:00.788Z,2.66
2023-01-10T13:20:00.509Z,3.32
2023-01-10T13:25:00.381Z,3.92
2023-01-10T13:30:00.685Z,3.54
2023-01-10T13:35:00.524Z,4.08
2023-01-10T13:40:00.768Z,4.13
2023-01-10T13:45:00.658Z,3.79
2023-01-10T13:50:00.678Z,3.75
2023-01-10T13:55:00.412Z,4.09
2023-01-10T14:00:00.875Z,4.97
2023-01-10T14:05:00.415Z,5.30
2023-01-10T14:10:00.495Z,4.98
2023-01-10T14:15:00.527Z,4.02
2023-01-10T14:20:00.520Z,4.42
2023-01-10T14:25:00.369Z,4.64
2023-01-10T14:30:00.604Z,5.32
2023-01-10T14:35:00.427Z,4.23
2023-01-10T14:40:00.440Z,4.27
2023-01-10T14:45:00.800Z,4.74
2023-01-10T14:50:00.425Z,4.22
2023-01-10T14:55:00.512Z,4.03
2023-01-10T15:00:01.285Z,4.60
2023-01-10T15:05:00.447Z,4.34
2023-01-10T15:10:00.431Z,4.10
2023-01-10T15:15:00.696Z,4.95
2023-01-10T15:20:00.400Z,4.72
2023-01-10T15:25:00.423Z,4.60
2023-01-10T15:30:00.702Z,3.89
2023-01-10T15:35:00.537Z,4.23
2023-01-10T15:40:00.518Z,4.09
2023-01-10T15:45:00.800Z,4.63
2023-01-10T15:50:00.612Z,4.71
2023-01-10T15:55:00.664Z,4.51
2023-01-10T16:00:00.970Z,4.90
2023-01-10T16:05:00.392Z,6.01
2023-01-10T16:10:00.533Z,5.57
2023-01-10T16:15:01.625Z,5.66
2023-01-10T16:20:00.636Z,5.01
2023-01-10T16:25:00.393Z,5.12
2023-01-10T16:30:01.458Z,4.26
2023-01-10T16:35:00.458Z,4.59
2023-01-10T16:40:00.696Z,4.60
2023-01-10T16:45:00.747Z,4.08
2023-01-10T16:50:00.560Z,5.01
2023-01-10T16:55:00.390Z,6.88
2023-01-10T17:00:01.173Z,6.45
2023-01-10T17:05:00.431Z,7.20
2023-01-10T17:10:00.529Z,11.12
2023-01-10T17:15:00.539Z,15.03
2023-01-10T17:20:00.446Z,16.11
2023-01-10T17:25:00.385Z,10.68
2023-01-10T17:30:00.635Z,9.18
2023-01-10T17:35:00.404Z,11.38
2023-01-10T17:40:00.674Z,7.77
2023-01-10T17:45:00.754Z,9.16
2023-01-10T17:50:00.616Z,6.89
2023-01-10T17:55:00.361Z,6.81
2023-01-10T18:00:00.721Z,7.97
2023-01-10T18:05:00.431Z,8.64
2023-01-10T18:10:00.423Z,8.41
2023-01-10T18:15:00.717Z,9.67
2023-01-10T18:20:00.396Z,8.21
2023-01-10T18:25:00.480Z,7.45
2023-01-10T18:30:00.679Z,7.66
2023-01-10T18:35:00.414Z,8.45
2023-01-10T18:40:00.670Z,8.39
2023-01-10T18:45:00.649Z,8.45
2023-01-10T18:55:02.490Z,9.74
2023-01-10T19:00:00.657Z,7.52
2023-01-10T19:05:00.956Z,9.12
2023-01-10T19:10:00.835Z,8.44
2023-01-10T19:15:00.778Z,8.28
2023-01-10T19:20:00.642Z,7.70
2023-01-10T19:25:01.708Z,7.01
2023-01-10T19:30:00.616Z,7.18
2023-01-10T19:35:00.781Z,8.45
2023-01-10T19:40:00.711Z,8.24
2023-01-10T19:45:00.849Z,7.97
2023-01-10T19:50:00.644Z,8.41
2023-01-10T19:55:00.905Z,8.23
2023-01-10T20:00:00.627Z,9.20
2023-01-10T20:05:00.660Z,10.42
2023-01-10T20:10:01.885Z,10.77
2023-01-10T20:15:00.614Z,10.62
2023-01-10T20:20:00.794Z,8.62
2023-01-10T20:25:00.865Z,10.25
2023-01-10T20:30:00.791Z,10.73
2023-01-10T20:35:00.657Z,10.98
2023-01-10T20:40:00.962Z,9.62
2023-01-10T20:45:00.627Z,10.14
2023-01-10T20:50:00.765Z,9.12
2023-01-10T20:55:00.902Z,8.89
2023-01-10T21:00:00.809Z,8.61
2023-01-10T21:05:00.766Z,8.01
2023-01-10T21:10:00.921Z,9.88
2023-01-10T21:15:00.651Z,9.66
2023-01-10T21:20:00.656Z,10.61
2023-01-10T21:25:00.936Z,10.84
2023-01-10T21:30:00.636Z,8.72
2023-01-10T21:35:00.756Z,7.39
2023-01-10T21:40:00.761Z,8.11
2023-01-10T21:50:00.901Z,8.07
2023-01-10T21:55:00.568Z,9.04
2023-01-10T22:00:01.725Z,10.17
2023-01-10T22:05:00.688Z,8.76
2023-01-10T22:10:03.991Z,8.66
2023-01-10T22:15:00.592Z,8.60
2023-01-10T22:20:00.745Z,9.08
2023-01-10T22:25:00.534Z,9.67
2023-01-10T22:30:00.591Z,9.94
2023-01-10T22:35:01.627Z,9.10
2023-01-10T22:40:00.526Z,9.13
2023-01-10T22:45:00.847Z,8.87
2023-01-10T22:50:00.972Z,8.64
2023-01-10T22:55:00.576Z,7.35
2023-01-10T23:00:00.935Z,7.80
2023-01-10T23:05:00.685Z,7.52
2023-01-10T23:10:00.837Z,7.89
2023-01-10T23:15:00.729Z,7.53
2023-01-10T23:20:00.644Z,7.80
2023-01-10T23:25:00.733Z,8.45
2023-01-10T23:30:00.786Z,9.33
2023-01-10T23:35:05.323Z,9.94
2023-01-10T23:40:00.553Z,9.55
2023-01-10T23:45:00.723Z,8.72
2023-01-10T23:50:00.652Z,9.13
2023-01-10T23:55:01.727Z,9.62
